Time;durP1;ratioP1;P1;durP2;ratioP2;P2;SDS_P1;SDS_P2;PMS_P1;PMS_P2;Temp;Humidity;BMP_temperature;BMP_pressure;BME280_temperature;BME280_humidity;BME280_pressure;Samples;Min_cycle;Max_cycle;Signal;HPM_P1;HPM_P2
2022/10/09 00:01:18;;;;;;;13.65;7.22;;;;;;;-143.48;75.05;80013.56;5054047;28;20103;-34
2022/10/09 00:03:45;;;;;;;13.95;6.65;;;;;;;-143.48;76.13;80013.56;5054279;28;20124;-32
2022/10/09 00:06:17;;;;;;;13.45;6.03;;;;;;;-143.48;75.54;80013.56;5053558;28;20103;-34
2022/10/09 00:08:43;;;;;;;18.85;6.22;;;;;;;-143.48;76.09;80011.56;5053905;28;20443;-34
2022/10/09 00:11:14;;;;;;;16.70;6.40;;;;;;;-143.48;75.64;80023.47;5054084;28;20053;-34
2022/10/09 00:13:40;;;;;;;15.23;6.47;;;;;;;-143.48;75.61;80027.44;5053385;28;20052;-34
2022/10/09 00:16:09;;;;;;;19.10;6.82;;;;;;;-143.48;75.88;80023.47;5054017;28;20033;-34
2022/10/09 00:18:35;;;;;;;17.48;7.15;;;;;;;-143.48;75.56;80045.31;5053389;28;20025;-34
2022/10/09 00:21:01;;;;;;;16.25;6.40;;;;;;;-143.48;76.57;80039.34;5053527;28;20025;-34
2022/10/09 00:23:27;;;;;;;16.83;6.55;;;;;;;-143.48;76.48;80015.53;5053451;28;20033;-35
2022/10/09 00:25:55;;;;;;;17.50;6.70;;;;;;;-143.48;76.11;80021.50;5053771;28;20021;-35
2022/10/09 00:28:23;;;;;;;15.38;6.10;;;;;;;-143.48;76.39;80017.53;5053582;28;20024;-33
2022/10/09 00:30:49;;;;;;;19.10;6.68;;;;;;;-143.48;76.06;80029.44;5053366;28;20032;-33
2022/10/09 00:33:14;;;;;;;13.32;6.32;;;;;;;-143.48;76.08;80025.47;5053663;28;20021;-32
2022/10/09 00:35:40;;;;;;;18.10;6.38;;;;;;;-143.48;75.99;80023.47;5053572;28;20043;-36
2022/10/09 00:38:06;;;;;;;13.90;6.32;;;;;;;-143.48;75.94;80041.34;5053530;28;20446;-33
2022/10/09 00:40:32;;;;;;;18.10;6.40;;;;;;;-143.48;75.79;80043.31;5052641;28;20108;-34
2022/10/09 00:42:58;;;;;;;13.82;5.25;;;;;;;-143.48;76.32;80055.22;5053099;28;20129;-34
2022/10/09 00:45:24;;;;;;;11.20;5.15;;;;;;;-143.48;76.29;80061.16;5053463;28;20024;-36
2022/10/09 00:47:53;;;;;;;16.15;5.10;;;;;;;-143.48;76.70;80059.19;5052027;28;20107;-36
2022/10/09 00:50:23;;;;;;;15.40;5.20;;;;;;;-143.48;76.22;80055.22;5053141;28;20467;-35
2022/10/09 00:52:53;;;;;;;9.93;4.57;;;;;;;-143.48;76.55;80071.09;5052354;28;20025;-36
2022/10/09 00:55:20;;;;;;;12.68;5.22;;;;;;;-143.48;76.02;80077.03;5053038;28;20103;-36
2022/10/09 00:57:46;;;;;;;11.55;4.95;;;;;;;-143.48;76.35;80083.00;5053853;28;20037;-34
2022/10/09 01:00:12;;;;;;;12.57;4.90;;;;;;;-143.48;76.01;80088.94;5053427;28;20025;-35
2022/10/09 01:02:37;;;;;;;14.30;5.20;;;;;;;-143.48;76.95;80083.00;5054669;28;20066;-35
2022/10/09 01:05:04;;;;;;;12.43;4.57;;;;;;;-143.48;76.24;80088.94;5057609;28;20095;-35
2022/10/09 01:07:37;;;;;;;12.77;5.07;;;;;;;-143.48;76.97;80086.97;5056608;28;20036;-34
2022/10/09 01:10:26;;;;;;;11.63;4.57;;;;;;;-143.48;76.21;80084.97;5057232;28;20120;-35
2022/10/09 01:12:58;;;;;;;14.77;4.80;;;;;;;-143.48;76.63;80090.94;5056976;28;20049;-33
2022/10/09 01:15:36;;;;;;;11.38;4.65;;;;;;;-143.48;76.48;80081.00;5056853;28;20032;-33
2022/10/09 01:18:28;;;;;;;14.63;4.78;;;;;;;-143.48;77.51;80071.09;5056761;28;20083;-33
2022/10/09 01:20:57;;;;;;;13.02;4.88;;;;;;;-143.48;77.14;80053.22;5056965;28;20032;-33
2022/10/09 01:23:33;;;;;;;11.73;5.00;;;;;;;-143.48;77.39;80043.31;5056915;28;20464;-35
2022/10/09 01:26:17;;;;;;;14.23;5.00;;;;;;;-143.48;77.24;80025.47;5056894;28;20518;-35
2022/10/09 01:28:46;;;;;;;13.23;5.07;;;;;;;-143.48;77.07;80021.50;5057129;28;20028;-33
2022/10/09 01:31:15;;;;;;;13.80;4.80;;;;;;;-143.48;76.74;80025.47;5056836;28;20024;-36
2022/10/09 01:33:41;;;;;;;14.55;4.78;;;;;;;-143.48;76.46;80025.47;5056681;28;20032;-35
2022/10/09 01:36:08;;;;;;;9.68;4.45;;;;;;;-143.48;76.35;80019.50;5056409;28;20021;-36
2022/10/09 01:38:35;;;;;;;12.43;4.30;;;;;;;-143.48;76.36;80025.47;5056714;28;20108;-35
2022/10/09 01:41:03;;;;;;;10.65;4.38;;;;;;;-143.48;76.35;80023.47;5056678;28;20025;-34
2022/10/09 01:43:28;;;;;;;13.93;4.70;;;;;;;-143.48;76.80;80035.38;5056602;28;20024;-38
2022/10/09 01:46:27;;;;;;;9.70;4.43;;;;;;;-143.48;76.28;80025.47;5056188;28;20029;-34
2022/10/09 01:49:07;;;;;;;14.00;4.70;;;;;;;-143.48;75.92;80045.31;5056309;28;20361;-35
2022/10/09 01:51:43;;;;;;;11.35;4.70;;;;;;;-143.48;76.18;80047.28;5056375;28;20048;-35
2022/10/09 01:54:13;;;;;;;13.43;4.70;;;;;;;-143.48;77.00;80045.31;5056604;28;20032;-36
2022/10/09 01:56:39;;;;;;;12.88;4.65;;;;;;;-143.48;76.97;80055.22;5056949;28;20460;-33
2022/10/09 01:59:14;;;;;;;10.70;4.43;;;;;;;-143.48;76.76;80075.06;5056084;28;20468;-33
2022/10/09 02:01:41;;;;;;;15.05;5.10;;;;;;;-143.48;77.30;80075.06;5056562;28;20029;-33
2022/10/09 02:04:09;;;;;;;12.80;4.90;;;;;;;-143.48;77.67;80067.13;5056200;28;20033;-34
2022/10/09 02:06:37;;;;;;;12.75;4.88;;;;;;;-143.48;77.75;80059.19;5055946;28;20536;-33
2022/10/09 02:09:05;;;;;;;15.32;4.90;;;;;;;-143.48;77.37;80055.22;5056125;28;20529;-35
2022/10/09 02:11:32;;;;;;;13.40;4.78;;;;;;;-143.48;77.06;80049.28;5055921;28;20020;-34
2022/10/09 02:13:58;;;;;;;10.10;4.80;;;;;;;-143.48;77.43;80041.34;5053950;28;20037;-34
2022/10/09 02:16:34;;;;;;;11.82;4.65;;;;;;;-143.48;76.70;80051.25;5055085;28;20025;-35
2022/10/09 02:19:23;;;;;;;15.13;5.00;;;;;;;-143.48;77.00;80053.22;5055993;28;20076;-35
2022/10/09 02:21:56;;;;;;;12.65;4.88;;;;;;;-143.48;76.89;80049.28;5055630;28;20021;-35
2022/10/09 02:24:23;;;;;;;14.57;4.72;;;;;;;-143.48;76.54;80065.13;5054802;28;20379;-35
2022/10/09 02:26:52;;;;;;;16.13;5.47;;;;;;;-143.48;77.53;80079.03;5055497;28;20024;-35
2022/10/09 02:29:17;;;;;;;12.77;5.15;;;;;;;-143.48;77.46;80063.16;5054908;28;20029;-33
2022/10/09 02:31:43;;;;;;;9.77;4.53;;;;;;;-143.48;77.31;80051.25;5054952;28;20051;-34
2022/10/09 02:34:11;;;;;;;11.70;4.78;;;;;;;-143.48;77.48;80057.19;5055046;28;20033;-34
2022/10/09 02:36:37;;;;;;;17.85;5.00;;;;;;;-143.48;77.38;80049.28;5054846;28;20411;-34
2022/10/09 02:39:04;;;;;;;16.50;5.80;;;;;;;-143.48;76.97;80057.19;5055097;28;20067;-34
2022/10/09 02:41:29;;;;;;;15.82;5.88;;;;;;;-143.48;77.59;80069.09;5055788;28;20031;-39
2022/10/09 02:43:55;;;;;;;13.77;5.03;;;;;;;-143.48;76.78;80067.13;5055509;28;20097;-33
2022/10/09 02:46:21;;;;;;;13.77;4.93;;;;;;;-143.48;77.11;80075.06;5055201;28;20025;-35
2022/10/09 02:48:46;;;;;;;15.55;5.47;;;;;;;-143.48;77.49;80083.00;5055135;28;20510;-34
2022/10/09 02:51:12;;;;;;;14.43;5.75;;;;;;;-143.48;77.39;80090.94;5055036;28;20048;-33
2022/10/09 02:53:37;;;;;;;10.90;5.35;;;;;;;-143.48;77.64;80088.94;5055195;28;20029;-33
2022/10/09 02:56:02;;;;;;;12.32;5.57;;;;;;;-143.48;77.98;80104.81;5055142;28;20135;-33
2022/10/09 02:58:32;;;;;;;11.20;5.63;;;;;;;-143.48;78.47;80092.91;5055493;28;20024;-37
2022/10/09 03:00:58;;;;;;;16.00;5.90;;;;;;;-143.48;78.19;80102.84;5055123;28;20036;-34
2022/10/09 03:03:23;;;;;;;11.25;5.68;;;;;;;-143.48;77.63;80098.88;5054792;28;20376;-34
2022/10/09 03:06:02;;;;;;;17.27;6.00;;;;;;;-143.48;78.31;80092.91;5055080;28;20055;-32
2022/10/09 03:08:28;;;;;;;20.35;6.15;;;;;;;-143.48;77.95;80094.91;5054484;28;20154;-33
2022/10/09 03:10:53;;;;;;;14.00;5.90;;;;;;;-143.48;78.15;80092.91;5054845;28;20463;-33
2022/10/09 03:13:18;;;;;;;15.43;5.72;;;;;;;-143.48;77.52;80094.91;5054368;28;20190;-36
2022/10/09 03:15:43;;;;;;;13.40;5.88;;;;;;;-143.48;77.92;80090.94;5055073;28;20059;-36
2022/10/09 03:18:09;;;;;;;15.65;6.10;;;;;;;-143.48;77.51;80096.88;5054462;28;20357;-35
2022/10/09 03:20:34;;;;;;;15.70;5.60;;;;;;;-143.48;77.72;80098.88;5054871;28;20079;-34
2022/10/09 03:22:59;;;;;;;14.68;5.82;;;;;;;-143.48;77.97;80106.81;5054734;28;20502;-37
2022/10/09 03:25:24;;;;;;;16.45;5.70;;;;;;;-143.48;78.34;80106.81;5054677;28;20092;-33
2022/10/09 03:27:50;;;;;;;11.35;5.65;;;;;;;-143.48;78.33;80110.78;5054695;28;20036;-33
2022/10/09 03:30:15;;;;;;;14.10;5.93;;;;;;;-143.48;78.48;80114.75;5054340;28;20032;-33
2022/10/09 03:32:41;;;;;;;11.10;5.80;;;;;;;-143.48;78.45;80110.78;5054295;28;20099;-33
2022/10/09 03:35:06;;;;;;;14.75;6.13;;;;;;;-143.48;78.21;80112.75;5054652;28;20025;-33
2022/10/09 03:37:32;;;;;;;13.75;5.97;;;;;;;-143.48;78.09;80114.75;5054438;28;20547;-33
2022/10/09 03:39:57;;;;;;;13.30;6.05;;;;;;;-143.48;78.35;80114.75;5054374;28;20036;-35
2022/10/09 03:42:23;;;;;;;11.00;5.85;;;;;;;-143.48;77.69;80106.81;5055191;28;20518;-33
2022/10/09 03:44:49;;;;;;;18.45;6.18;;;;;;;-143.48;77.94;80104.81;5054061;28;20067;-33
2022/10/09 03:47:14;;;;;;;15.50;5.70;;;;;;;-143.48;78.39;80130.63;5054272;28;20029;-32
2022/10/09 03:49:40;;;;;;;14.90;6.50;;;;;;;-143.48;78.64;80152.44;5054286;28;20056;-33
2022/10/09 03:52:05;;;;;;;17.23;6.50;;;;;;;-143.48;79.01;80138.56;5054406;28;20078;-33
2022/10/09 03:54:30;;;;;;;14.00;5.93;;;;;;;-143.48;79.03;80142.53;5053849;28;20545;-35
2022/10/09 03:56:56;;;;;;;11.80;6.05;;;;;;;-143.48;79.31;80156.41;5053814;28;20116;-33
2022/10/09 03:59:21;;;;;;;14.13;5.90;;;;;;;-143.48;79.68;80152.44;5054290;28;20032;-34
2022/10/09 04:01:46;;;;;;;14.77;6.38;;;;;;;-143.48;79.40;80156.41;5054042;28;20025;-32
2022/10/09 04:04:12;;;;;;;15.38;5.90;;;;;;;-143.48;79.08;80162.34;5053989;28;20017;-33
2022/10/09 04:06:37;;;;;;;15.02;6.60;;;;;;;-143.48;79.15;80142.53;5054294;28;20025;-33
2022/10/09 04:09:02;;;;;;;19.55;6.40;;;;;;;-143.48;78.87;80146.50;5053854;28;20031;-35
2022/10/09 04:11:27;;;;;;;13.18;6.35;;;;;;;-143.48;79.35;80166.31;5054193;28;20087;-35
2022/10/09 04:13:53;;;;;;;13.98;6.25;;;;;;;-143.48;79.38;80176.25;5053407;28;20090;-35
2022/10/09 04:16:18;;;;;;;15.55;6.30;;;;;;;-143.48;79.28;80172.28;5054116;28;20029;-33
2022/10/09 04:18:44;;;;;;;13.77;5.68;;;;;;;-143.48;79.27;80168.31;5053758;28;20490;-34
2022/10/09 04:21:11;;;;;;;16.38;6.78;;;;;;;-143.48;78.67;80176.25;5053513;28;20383;-33
2022/10/09 04:23:36;;;;;;;19.63;6.40;;;;;;;-143.48;79.13;80170.28;5053448;28;20083;-34
2022/10/09 04:26:02;;;;;;;21.33;6.55;;;;;;;-143.48;78.82;80162.34;5053425;28;20016;-36
2022/10/09 04:28:29;;;;;;;16.92;6.20;;;;;;;-143.48;79.35;80180.22;5053936;28;20059;-33
2022/10/09 04:30:58;;;;;;;16.23;6.65;;;;;;;-143.48;79.25;80172.28;5053331;28;20166;-34
2022/10/09 04:33:25;;;;;;;16.05;6.22;;;;;;;-143.48;79.14;80160.38;5053676;28;20108;-32
2022/10/09 04:35:52;;;;;;;11.52;5.90;;;;;;;-143.48;78.65;80168.31;5053298;28;20486;-35
2022/10/09 04:38:19;;;;;;;15.38;6.70;;;;;;;-143.48;78.45;80162.34;5053347;28;20175;-34
2022/10/09 04:40:53;;;;;;;13.82;6.03;;;;;;;-143.48;78.07;80162.34;5053877;28;20025;-36
2022/10/09 04:43:18;;;;;;;16.58;6.18;;;;;;;-143.48;78.61;80164.34;5053266;28;20025;-35
2022/10/09 04:45:44;;;;;;;15.45;6.15;;;;;;;-143.48;78.24;80162.34;5053525;28;20031;-33
2022/10/09 04:48:09;;;;;;;16.25;5.90;;;;;;;-143.48;78.39;80162.34;5053524;28;20051;-34
2022/10/09 04:50:37;;;;;;;14.52;5.97;;;;;;;-143.48;78.75;80156.41;5053518;28;20096;-35
2022/10/09 04:53:02;;;;;;;17.60;6.18;;;;;;;-143.48;77.96;80150.47;5053431;28;20040;-34
2022/10/09 04:55:28;;;;;;;16.92;6.10;;;;;;;-143.48;78.28;80170.28;5053644;28;20029;-33
2022/10/09 04:57:53;;;;;;;17.67;5.97;;;;;;;-143.48;78.69;80154.44;5053341;28;20113;-33
2022/10/09 05:00:18;;;;;;;16.85;6.72;;;;;;;-143.48;78.38;80154.44;5053362;28;20036;-35
2022/10/09 05:02:43;;;;;;;12.50;6.35;;;;;;;-143.48;78.11;80166.31;5053070;28;20155;-32
2022/10/09 05:05:09;;;;;;;18.20;6.82;;;;;;;-143.48;78.02;80170.28;5053346;28;20013;-33
2022/10/09 05:07:34;;;;;;;16.05;6.20;;;;;;;-143.48;77.83;80148.47;5053108;28;20480;-34
2022/10/09 05:09:59;;;;;;;13.05;6.00;;;;;;;-143.48;77.60;80164.34;5053272;28;20025;-34
2022/10/09 05:12:24;;;;;;;16.15;5.78;;;;;;;-143.48;77.65;80172.28;5052847;28;20124;-33
2022/10/09 05:14:50;;;;;;;14.57;5.82;;;;;;;-143.48;78.02;80168.31;5052913;28;20047;-34
2022/10/09 05:17:15;;;;;;;13.68;5.50;;;;;;;-143.48;78.03;80172.28;5053135;28;20029;-35
2022/10/09 05:19:41;;;;;;;16.65;5.65;;;;;;;-143.48;78.28;80192.13;5053516;28;20051;-34
2022/10/09 05:22:06;;;;;;;14.65;6.20;;;;;;;-143.48;78.72;80190.13;5051720;28;20076;-35
2022/10/09 05:24:31;;;;;;;15.85;6.22;;;;;;;-143.48;79.26;80182.19;5053156;28;20025;-35
2022/10/09 05:26:57;;;;;;;16.70;6.30;;;;;;;-143.48;78.86;80172.28;5053078;28;20029;-35
2022/10/09 05:29:22;;;;;;;17.25;6.78;;;;;;;-143.48;78.65;80172.28;5051626;28;20423;-34
2022/10/09 05:31:47;;;;;;;16.55;7.15;;;;;;;-143.48;78.36;80178.22;5053062;28;20104;-35
2022/10/09 05:34:12;;;;;;;14.48;6.43;;;;;;;-143.48;78.72;80178.22;5053011;28;20051;-33
2022/10/09 05:36:38;;;;;;;16.27;6.15;;;;;;;-143.48;78.80;80178.22;5053025;28;20025;-33
2022/10/09 05:39:03;;;;;;;12.10;6.10;;;;;;;-143.48;78.31;80172.28;5053034;28;20033;-32
2022/10/09 05:41:29;;;;;;;17.13;5.53;;;;;;;-143.48;78.35;80182.19;5052951;28;20456;-32
2022/10/09 05:43:58;;;;;;;13.93;5.78;;;;;;;-143.48;78.35;80172.28;5053045;28;20033;-34
2022/10/09 05:46:24;;;;;;;17.90;5.75;;;;;;;-143.48;78.27;80172.28;5052682;28;20068;-34
2022/10/09 05:48:54;;;;;;;12.95;5.95;;;;;;;-143.48;78.03;80178.22;5052691;28;20047;-37
2022/10/09 05:51:22;;;;;;;11.98;5.90;;;;;;;-143.48;78.01;80186.16;5056410;28;20025;-35
2022/10/09 05:53:48;;;;;;;16.67;6.30;;;;;;;-143.48;78.51;80198.06;5056437;28;20123;-35
2022/10/09 05:56:21;;;;;;;12.80;5.93;;;;;;;-143.48;78.33;80190.13;5056441;28;20108;-35
2022/10/09 05:58:56;;;;;;;14.10;6.38;;;;;;;-143.48;78.85;80202.03;5056437;28;20027;-34
2022/10/09 06:01:24;;;;;;;12.88;5.85;;;;;;;-143.48;79.12;80186.16;5056377;28;20036;-34
2022/10/09 06:03:54;;;;;;;11.95;6.13;;;;;;;-143.48;78.93;80164.34;5056069;28;20075;-34
2022/10/09 06:06:21;;;;;;;17.33;6.22;;;;;;;-143.48;78.01;80172.28;5056268;28;20028;-34
2022/10/09 06:08:48;;;;;;;16.52;6.57;;;;;;;-143.48;77.83;80170.28;5056476;28;20382;-35
2022/10/09 06:11:22;;;;;;;14.73;6.38;;;;;;;-143.48;78.09;80154.44;5056230;28;20375;-37
2022/10/09 06:13:48;;;;;;;12.88;5.88;;;;;;;-143.48;77.72;80142.53;5055656;28;20071;-36
2022/10/09 06:16:15;;;;;;;16.83;6.18;;;;;;;-143.48;77.36;80160.38;5055834;28;20036;-34
2022/10/09 06:18:43;;;;;;;13.10;5.85;;;;;;;-143.48;77.77;80150.47;5055699;28;20033;-34
2022/10/09 06:21:08;;;;;;;16.63;6.25;;;;;;;-143.48;76.76;80148.47;5055933;28;20021;-35
2022/10/09 06:23:34;;;;;;;14.35;6.20;;;;;;;-143.48;76.97;80142.53;5055939;28;20463;-34
2022/10/09 06:26:05;;;;;;;17.23;6.15;;;;;;;-143.48;76.61;80150.47;5055547;28;20017;-36
2022/10/09 06:28:32;;;;;;;12.63;6.20;;;;;;;-143.48;76.44;80146.50;5056110;28;20027;-35
2022/10/09 06:31:28;;;;;;;12.75;5.78;;;;;;;-143.48;76.51;80156.41;5056056;28;20029;-35
2022/10/09 06:33:53;;;;;;;12.05;5.95;;;;;;;-143.48;76.18;80156.41;5050949;28;20029;-34
2022/10/09 06:36:24;;;;;;;14.95;6.35;;;;;;;-143.48;76.54;80152.44;5055694;28;20528;-36
2022/10/09 06:38:50;;;;;;;14.90;5.97;;;;;;;-143.48;76.37;80134.59;5055599;28;20464;-35
2022/10/09 06:41:17;;;;;;;15.32;5.85;;;;;;;-143.48;75.80;80142.53;5055278;28;20025;-34
2022/10/09 06:43:49;;;;;;;12.05;6.18;;;;;;;-143.48;75.43;80120.69;5055274;28;20360;-34
2022/10/09 06:46:14;;;;;;;14.15;6.05;;;;;;;-143.48;76.10;80106.81;5055181;28;20017;-34
2022/10/09 06:48:39;;;;;;;11.85;6.07;;;;;;;-143.48;75.64;80118.72;5055735;28;20040;-37
2022/10/09 06:51:08;;;;;;;14.10;6.50;;;;;;;-143.48;75.33;80136.56;5055118;28;20254;-35
2022/10/09 06:53:35;;;;;;;12.38;5.88;;;;;;;-143.48;75.25;80096.88;5055671;28;20032;-35
2022/10/09 06:56:00;;;;;;;13.95;5.95;;;;;;;-143.48;74.75;80106.81;5054970;28;20066;-34
2022/10/09 06:58:26;;;;;;;14.55;6.60;;;;;;;-143.48;75.20;80096.88;5054992;28;20037;-34
2022/10/09 07:01:30;;;;;;;19.90;7.75;;;;;;;-143.48;75.81;80104.81;5054530;28;20175;-37
2022/10/09 07:04:08;;;;;;;17.52;8.10;;;;;;;-143.48;75.73;80088.94;5047758;28;20072;-34
2022/10/09 07:06:37;;;;;;;11.45;6.63;;;;;;;-143.48;75.75;80049.28;5054168;28;20025;-35
2022/10/09 07:09:05;;;;;;;16.70;6.95;;;;;;;-143.48;74.45;80043.31;5053042;28;20111;-36
2022/10/09 07:11:33;;;;;;;12.43;5.95;;;;;;;-143.48;74.75;80019.50;5054563;28;20392;-35
2022/10/09 07:14:01;;;;;;;13.80;6.00;;;;;;;-143.48;73.53;80005.63;5053244;28;20124;-35
2022/10/09 07:16:35;;;;;;;12.98;6.03;;;;;;;-143.48;73.03;79989.75;5054611;28;20032;-35
2022/10/09 07:19:06;;;;;;;12.93;5.70;;;;;;;-143.48;72.64;79942.13;5054855;28;20063;-34
2022/10/09 07:21:31;;;;;;;11.50;5.25;;;;;;;-143.48;68.50;79813.19;5054877;28;20396;-40
2022/10/09 07:23:59;;;;;;;13.38;4.82;;;;;;;-143.48;68.50;79862.78;5054734;28;20021;-36
2022/10/09 07:26:26;;;;;;;12.68;5.03;;;;;;;-143.48;69.34;79866.75;5054701;28;20099;-36
2022/10/09 07:28:52;;;;;;;7.65;4.50;;;;;;;-143.48;69.57;79884.59;5054959;28;20107;-36
2022/10/09 07:31:18;;;;;;;13.85;5.63;;;;;;;-143.48;68.28;79817.16;5054296;28;20100;-36
2022/10/09 07:33:47;;;;;;;10.55;4.45;;;;;;;-143.48;66.50;79795.31;5054568;28;20074;-35
2022/10/09 07:36:13;;;;;;;10.48;4.95;;;;;;;-143.48;66.45;79771.50;5054255;28;20025;-34
2022/10/09 07:38:38;;;;;;;15.27;4.95;;;;;;;-143.48;67.18;79773.50;5054319;28;20063;-35
2022/10/09 07:41:06;;;;;;;10.65;4.50;;;;;;;-143.48;65.26;79727.88;5054100;28;20025;-34
2022/10/09 07:43:34;;;;;;;10.35;4.65;;;;;;;-143.48;60.17;79525.50;5054578;28;20055;-34
2022/10/09 07:46:01;;;;;;;12.65;4.30;;;;;;;-143.48;56.25;79350.94;5054012;28;20024;-34
2022/10/09 07:48:26;;;;;;;11.40;4.00;;;;;;;-143.48;56.32;79420.38;5054542;28;20120;-36
2022/10/09 07:50:52;;;;;;;10.27;3.95;;;;;;;-143.48;56.43;79404.50;5053154;28;20422;-34
2022/10/09 07:53:17;;;;;;;11.55;3.85;;;;;;;-143.48;54.76;79341.03;5053383;28;20025;-35
2022/10/09 07:55:47;;;;;;;9.18;3.50;;;;;;;-143.48;52.79;79190.28;5053219;28;20021;-34
2022/10/09 07:58:13;;;;;;;10.18;3.45;;;;;;;-143.48;48.28;79035.56;5053773;28;20028;-35
2022/10/09 08:00:39;;;;;;;9.90;3.70;;;;;;;-143.48;46.38;78904.63;5035619;28;20031;-36
2022/10/09 08:03:04;;;;;;;9.57;3.47;;;;;;;-143.48;45.23;78862.97;5054023;28;20024;-35
2022/10/09 08:05:29;;;;;;;7.78;3.45;;;;;;;-143.48;44.98;78859.03;5054067;28;20417;-36
2022/10/09 08:07:55;;;;;;;7.93;3.00;;;;;;;-143.48;42.91;78714.22;5053626;28;20094;-34
2022/10/09 08:10:20;;;;;;;8.02;3.03;;;;;;;-143.48;42.04;78724.16;5053930;28;20063;-36
2022/10/09 08:12:46;;;;;;;9.88;3.50;;;;;;;-143.48;43.39;78817.38;5052691;28;20080;-36
2022/10/09 08:15:12;;;;;;;11.07;3.08;;;;;;;-143.48;45.46;78928.44;5054161;28;20033;-36
2022/10/09 08:17:37;;;;;;;8.13;2.90;;;;;;;-143.48;44.83;78914.56;5053620;28;20471;-36
2022/10/09 08:20:03;;;;;;;11.40;3.55;;;;;;;-143.48;43.57;78783.66;5053517;28;20025;-34
2022/10/09 08:22:28;;;;;;;8.00;2.92;;;;;;;-143.48;41.76;78672.56;5053798;28;20025;-35
2022/10/09 08:24:53;;;;;;;8.40;3.00;;;;;;;-143.48;41.23;78621.00;5052214;28;20380;-35
2022/10/09 08:27:19;;;;;;;9.57;3.20;;;;;;;-143.48;40.89;78634.91;5054465;28;20032;-35
2022/10/09 08:29:44;;;;;;;13.02;3.78;;;;;;;-143.48;41.91;78722.16;5054031;28;20100;-35
2022/10/09 08:32:09;;;;;;;6.25;2.65;;;;;;;-143.48;40.69;78613.06;5053546;28;20029;-36
2022/10/09 08:34:35;;;;;;;8.07;3.10;;;;;;;-143.48;40.24;78593.25;5053273;28;20525;-34
2022/10/09 08:37:00;;;;;;;10.73;3.08;;;;;;;-143.48;38.56;78418.72;5053295;28;20266;-36
2022/10/09 08:39:29;;;;;;;7.60;2.95;;;;;;;-143.48;38.91;78424.66;5053108;28;20112;-35
2022/10/09 08:41:57;;;;;;;11.45;3.30;;;;;;;-143.48;39.85;78575.41;5053115;28;20017;-36
2022/10/09 08:44:24;;;;;;;9.10;3.00;;;;;;;-143.48;38.49;78400.88;5053351;28;20021;-34
2022/10/09 08:47:01;;;;;;;8.40;3.08;;;;;;;-143.48;40.02;78551.59;5053515;28;20033;-36
2022/10/09 08:49:36;;;;;;;10.50;2.72;;;;;;;-143.48;37.75;78388.97;5053209;28;20035;-36
2022/10/09 08:52:24;;;;;;;13.07;3.22;;;;;;;-143.48;38.02;78406.81;5053793;28;20109;-35
2022/10/09 08:54:51;;;;;;;10.55;3.00;;;;;;;-143.48;37.26;78317.56;5052443;28;20013;-35
2022/10/09 08:57:18;;;;;;;11.82;3.45;;;;;;;-143.48;36.62;78289.81;5053330;28;20021;-36
2022/10/09 08:59:43;;;;;;;7.95;2.60;;;;;;;-143.48;37.43;78400.88;5053458;28;20440;-35
2022/10/09 09:02:30;;;;;;;10.25;2.90;;;;;;;-143.48;38.20;78404.84;5053310;28;20060;-35
2022/10/09 09:04:58;;;;;;;9.65;2.63;;;;;;;-143.48;38.07;78375.09;5052260;28;20436;-35
2022/10/09 09:07:42;;;;;;;9.60;2.65;;;;;;;-143.48;36.86;78285.84;5051729;28;20036;-35
2022/10/09 09:10:19;;;;;;;10.63;2.95;;;;;;;-143.48;36.21;78214.44;5053000;28;20099;-37
2022/10/09 09:12:54;;;;;;;10.18;2.70;;;;;;;-143.48;36.08;78224.38;5052969;28;20102;-34
2022/10/09 09:15:46;;;;;;;9.20;2.53;;;;;;;-143.48;36.13;78277.91;5051713;28;20034;-35
2022/10/09 09:18:38;;;;;;;8.40;2.65;;;;;;;-143.48;36.04;78268.00;5052946;28;20028;-35
2022/10/09 09:21:23;;;;;;;9.70;2.70;;;;;;;-143.48;35.76;78273.94;5050484;28;20037;-35
2022/10/09 09:24:02;;;;;;;12.20;2.75;;;;;;;-143.48;34.91;78164.88;5053178;28;20400;-36
2022/10/09 09:26:40;;;;;;;9.32;2.78;;;;;;;-143.48;37.63;78412.75;5039014;28;20016;-35
2022/10/09 09:29:13;;;;;;;7.13;2.58;;;;;;;-143.48;35.22;78200.56;5055343;28;20574;-35
2022/10/09 09:31:38;;;;;;;;;;;;;;;-143.48;34.58;78174.78;5056761;28;20112;-34
2022/10/09 09:34:27;;;;;;;10.35;2.70;;;;;;;-143.48;34.91;78228.31;5055884;28;19986;-36
2022/10/09 09:36:58;;;;;;;10.93;2.70;;;;;;;-143.48;34.97;78228.31;5056519;28;20021;-36
2022/10/09 09:39:29;;;;;;;9.52;2.53;;;;;;;-143.48;35.25;78200.56;5056490;28;20063;-36
2022/10/09 09:44:45;;;;;;;9.30;2.50;;;;;;;-143.48;34.13;78184.69;5035956;28;20057;-74
2022/10/09 09:47:20;;;;;;;6.50;2.20;;;;;;;-143.48;33.20;77980.44;5038316;28;20107;-75
2022/10/09 09:49:58;;;;;;;7.05;2.20;;;;;;;-143.48;33.37;78016.13;5021834;28;20049;-72
2022/10/09 09:52:27;;;;;;;8.65;2.22;;;;;;;-143.48;33.04;78097.44;5036844;28;20365;-73
2022/10/09 09:54:57;;;;;;;8.25;2.20;;;;;;;-143.48;33.44;78111.31;5044777;28;20033;-72
2022/10/09 09:57:31;;;;;;;9.48;2.17;;;;;;;-143.48;33.55;78105.38;5020244;28;20026;-72
2022/10/09 10:00:15;;;;;;;8.05;2.20;;;;;;;-143.48;32.99;78026.06;5019797;28;20025;-73
2022/10/09 10:02:40;;;;;;;10.93;2.50;;;;;;;-143.48;34.47;78180.72;5037113;28;20022;-74
2022/10/09 10:05:26;;;;;;;12.15;2.60;;;;;;;-143.48;33.15;78055.81;5018675;28;20139;-72
2022/10/09 10:07:52;;;;;;;9.07;2.30;;;;;;;-143.48;35.10;78200.56;5021058;28;20041;-74
2022/10/09 10:10:24;;;;;;;9.75;2.45;;;;;;;-143.48;35.89;78361.19;5018080;28;20071;-73
2022/10/09 10:12:55;;;;;;;8.93;2.50;;;;;;;-143.48;36.54;78396.91;5018048;28;20025;-71
2022/10/09 10:15:30;;;;;;;10.50;2.50;;;;;;;-143.48;38.43;78583.31;5035943;28;20032;-73
2022/10/09 10:18:02;;;;;;;8.60;2.05;;;;;;;-143.48;39.82;78696.38;5037457;28;20036;-73
2022/10/09 10:20:30;;;;;;;7.90;2.47;;;;;;;-143.48;39.30;78617.03;5042040;28;20396;-73
2022/10/09 10:22:56;;;;;;;8.25;2.40;;;;;;;-143.48;40.10;78615.06;5020547;28;20025;-72
2022/10/09 10:25:30;;;;;;;7.88;2.15;;;;;;;-143.48;40.30;78525.81;5019703;28;20091;-73
2022/10/09 10:28:02;;;;;;;8.30;2.00;;;;;;;-143.48;40.20;78666.63;5018353;28;20492;-73
2022/10/09 10:30:29;;;;;;;8.85;2.33;;;;;;;-143.48;41.15;78714.22;5036043;28;20022;-72
2022/10/09 10:33:00;;;;;;;10.10;2.10;;;;;;;-143.48;40.56;78694.41;5035916;28;20037;-73
2022/10/09 10:35:29;;;;;;;10.95;2.53;;;;;;;-143.48;41.44;78781.66;5016839;28;20495;-73
2022/10/09 10:38:05;;;;;;;12.82;2.63;;;;;;;-143.48;41.44;78736.03;5018175;28;20057;-71
2022/10/09 10:40:41;;;;;;;8.52;2.40;;;;;;;-143.48;41.51;78767.78;5035136;28;20025;-72
2022/10/09 10:43:08;;;;;;;11.98;2.65;;;;;;;-143.48;41.63;78765.78;5036712;28;20081;-71
2022/10/09 10:45:34;;;;;;;6.85;2.33;;;;;;;-143.48;42.35;78740.00;5035452;28;20385;-73
2022/10/09 10:48:02;;;;;;;9.48;2.60;;;;;;;-143.48;40.16;78591.25;5035146;28;20124;-71
2022/10/09 10:50:37;;;;;;;11.20;2.53;;;;;;;-143.48;39.83;78605.16;5034658;28;20029;-72
2022/10/09 10:53:17;;;;;;;6.57;2.63;;;;;;;-143.48;40.66;78682.50;5016465;28;20022;-71
2022/10/09 10:55:53;;;;;;;11.77;2.60;;;;;;;-143.48;41.60;78745.97;5034584;28;20547;-71
2022/10/09 10:58:29;;;;;;;10.43;2.10;;;;;;;-143.48;40.44;78646.78;5034848;28;20026;-71
2022/10/09 11:01:30;;;;;;;10.18;2.65;;;;;;;-143.48;40.13;78638.84;5034364;28;20026;-71
2022/10/09 11:03:58;;;;;;;13.27;2.80;;;;;;;-143.48;38.93;78551.59;5002749;28;20037;-72
2022/10/09 11:06:41;;;;;;;10.73;2.80;;;;;;;-143.48;39.32;78666.63;5035079;28;20104;-72
2022/10/09 11:09:51;;;;;;;10.77;2.42;;;;;;;-143.48;39.75;78692.41;5033003;28;20033;-72
2022/10/09 11:12:24;;;;;;;6.85;2.42;;;;;;;-143.48;39.38;78630.94;5034600;28;20095;-71
2022/10/09 11:15:11;;;;;;;11.68;2.97;;;;;;;-143.48;38.88;78603.16;5016997;28;20022;-72
2022/10/09 11:17:50;;;;;;;8.45;2.42;;;;;;;-143.48;39.73;78634.91;5017763;28;20524;-72
2022/10/09 11:20:16;;;;;;;8.13;2.58;;;;;;;-143.48;39.32;78660.69;5017465;28;20029;-72
2022/10/09 11:22:48;;;;;;;10.90;2.83;;;;;;;-143.48;39.22;78742.00;5017475;28;20025;-72
2022/10/09 11:25:35;;;;;;;9.23;2.95;;;;;;;-143.48;38.45;78632.91;5016706;28;20025;-72